TimeMDT,TemperatureF,Dew PointF,Humidity,Sea Level PressureIn,VisibilityMPH,Wind Direction,Wind SpeedMPH,Gust SpeedMPH,PrecipitationIn,Events,Conditions,WindDirDegrees,DateUTC
12:53 AM,44.1,30.0,58,29.83,10.0,West,3.5,-,N/A,,Clear,280,2012-10-21 06:53:00
1:53 AM,42.1,30.0,62,29.83,10.0,West,4.6,-,N/A,,Clear,280,2012-10-21 07:53:00
2:53 AM,41.0,28.9,62,29.85,10.0,Calm,Calm,-,N/A,,Clear,0,2012-10-21 08:53:00
3:53 AM,39.9,28.9,65,29.85,10.0,Calm,Calm,-,N/A,,Clear,0,2012-10-21 09:53:00
4:53 AM,39.0,28.9,67,29.85,10.0,Calm,Calm,-,N/A,,Clear,0,2012-10-21 10:53:00
5:53 AM,37.9,28.9,70,29.86,10.0,Calm,Calm,-,N/A,,Clear,0,2012-10-21 11:53:00
6:53 AM,37.0,28.0,70,29.87,10.0,Calm,Calm,-,N/A,,Clear,0,2012-10-21 12:53:00
7:53 AM,36.0,27.0,70,29.88,10.0,SSE,3.5,-,N/A,,Clear,150,2012-10-21 13:53:00
8:53 AM,34.0,28.0,79,29.90,10.0,Calm,Calm,-,N/A,,Clear,0,2012-10-21 14:53:00
9:53 AM,39.9,30.9,70,29.90,10.0,Calm,Calm,-,N/A,,Clear,0,2012-10-21 15:53:00
10:53 AM,45.0,30.9,58,29.90,10.0,Calm,Calm,-,N/A,,Clear,0,2012-10-21 16:53:00
11:53 AM,48.0,30.0,50,29.89,10.0,WNW,3.5,-,N/A,,Clear,290,2012-10-21 17:53:00
12:53 PM,51.8,26.6,38,29.87,10.0,WNW,4.6,-,N/A,,Clear,290,2012-10-21 18:53:00
1:53 PM,54.0,24.1,31,29.84,10.0,NW,4.6,-,N/A,,Clear,320,2012-10-21 19:53:00
2:53 PM,55.0,21.9,28,29.82,10.0,Calm,Calm,-,N/A,,Clear,0,2012-10-21 20:53:00
3:53 PM,55.9,23.0,28,29.81,10.0,WSW,5.8,-,N/A,,Scattered Clouds,250,2012-10-21 21:53:00
4:53 PM,57.0,24.1,28,29.80,10.0,Calm,Calm,-,N/A,,Clear,0,2012-10-21 22:53:00
5:53 PM,55.9,25.0,30,29.78,10.0,NW,5.8,-,N/A,,Clear,320,2012-10-21 23:53:00
6:53 PM,53.1,26.1,35,29.79,10.0,WNW,8.1,-,N/A,,Overcast,300,2012-10-22 00:53:00
7:53 PM,52.0,27.0,38,29.81,10.0,WNW,5.8,-,N/A,,Overcast,300,2012-10-22 01:53:00
8:53 PM,50.0,27.0,41,29.81,10.0,East,6.9,-,N/A,,Mostly Cloudy,90,2012-10-22 02:53:00
9:53 PM,48.9,28.0,44,29.80,10.0,SE,5.8,-,N/A,,Mostly Cloudy,130,2012-10-22 03:53:00
10:53 PM,48.9,28.9,46,29.78,10.0,East,3.5,-,N/A,,Partly Cloudy,90,2012-10-22 04:53:00
11:53 PM,46.9,30.9,54,29.76,10.0,Calm,Calm,-,N/A,,Mostly Cloudy,0,2012-10-22 05:53:00